Time;durP1;ratioP1;P1;durP2;ratioP2;P2;SDS_P1;SDS_P2;PMS_P1;PMS_P2;Temp;Humidity;BMP_temperature;BMP_pressure;BME280_temperature;BME280_humidity;BME280_pressure;Samples;Min_cycle;Max_cycle;Signal;HPM_P1;HPM_P2
2022/05/29 00:00:24;;;;;;;4.57;2.00;;;10.70;70.90;;;9.40;71.91;95720.81;5004272;28;20448;-68
2022/05/29 00:02:50;;;;;;;5.72;2.17;;;10.70;71.00;;;9.38;72.14;95720.19;4994811;28;20041;-70
2022/05/29 00:05:16;;;;;;;5.25;2.00;;;10.60;71.00;;;9.36;71.67;95720.38;4983785;28;20121;-68
2022/05/29 00:07:47;;;;;;;7.35;2.42;;;10.60;70.90;;;9.33;72.84;95719.94;4991839;28;20053;-68
2022/05/29 00:10:12;;;;;;;5.10;2.28;;;10.50;71.30;;;9.29;72.53;95713.47;4996008;28;20067;-68
2022/05/29 00:12:39;;;;;;;4.90;2.10;;;10.50;71.50;;;9.27;72.60;95718.06;4965033;28;20125;-68
2022/05/29 00:15:05;;;;;;;5.72;2.60;;;10.50;71.60;;;9.23;72.47;95715.00;5016493;28;20045;-68
2022/05/29 00:17:31;;;;;;;4.25;2.55;;;10.50;71.70;;;9.19;73.38;95719.84;4992741;28;20422;-68
2022/05/29 00:19:57;;;;;;;4.78;2.38;;;10.40;72.10;;;9.16;72.52;95717.59;4984953;28;20073;-68
2022/05/29 00:22:23;;;;;;;4.30;2.50;;;10.40;72.20;;;9.12;73.23;95711.09;4997354;28;20053;-68
2022/05/29 00:24:49;;;;;;;6.47;2.78;;;10.30;72.40;;;9.08;73.66;95712.50;4986177;28;20061;-68
2022/05/29 00:27:16;;;;;;;5.57;3.00;;;10.30;72.70;;;9.04;73.02;95716.47;4993061;28;20131;-67
2022/05/29 00:29:42;;;;;;;4.88;2.65;;;10.20;72.90;;;9.02;74.05;95707.16;4998764;28;20410;-67
2022/05/29 00:32:09;;;;;;;6.47;3.20;;;10.20;72.90;;;8.97;73.91;95697.25;4972456;28;20041;-68
2022/05/29 00:34:35;;;;;;;7.38;3.22;;;10.20;72.90;;;8.96;73.36;95702.69;4981396;28;20403;-68
2022/05/29 00:37:04;;;;;;;7.28;3.25;;;10.20;73.00;;;8.91;74.86;95695.38;5003895;28;20057;-68
2022/05/29 00:39:30;;;;;;;6.00;2.42;;;10.10;73.00;;;8.85;73.36;95690.91;5011634;28;20487;-68
2022/05/29 00:41:56;;;;;;;6.97;2.55;;;10.10;73.20;;;8.81;73.59;95694.88;4989160;28;20042;-68
2022/05/29 00:44:28;;;;;;;6.55;2.30;;;10.10;73.40;;;8.77;75.43;95691.00;4993237;28;20432;-67
2022/05/29 00:46:56;;;;;;;5.00;2.20;;;10.00;73.60;;;8.74;74.82;95689.56;4980417;28;20080;-73
2022/05/29 00:49:25;;;;;;;6.28;1.98;;;10.00;73.60;;;8.70;74.67;95698.00;5006644;28;20464;-67
2022/05/29 00:52:21;;;;;;;6.68;2.33;;;9.90;73.90;;;8.63;75.65;95686.66;5000648;28;20038;-68
2022/05/29 00:55:17;;;;;;;3.15;1.80;;;9.80;74.10;;;8.57;76.04;95677.69;5015620;28;20030;-67
2022/05/29 00:58:08;;;;;;;4.07;2.17;;;9.80;74.20;;;8.53;76.69;95681.69;5017777;28;20049;-68
2022/05/29 01:00:34;;;;;;;4.87;2.20;;;9.80;74.30;;;8.49;74.70;95670.78;4985204;28;20042;-68
2022/05/29 01:03:02;;;;;;;4.65;2.15;;;9.70;74.10;;;8.49;75.09;95675.22;5000837;28;20038;-68
2022/05/29 01:05:30;;;;;;;8.25;2.13;;;9.80;74.10;;;8.47;75.65;95667.53;5021147;28;20026;-68
2022/05/29 01:08:10;;;;;;;4.05;2.00;;;9.80;73.90;;;8.43;76.90;95666.28;4998503;28;20430;-67
2022/05/29 01:11:13;;;;;;;7.68;2.28;;;9.70;74.10;;;8.37;77.14;95664.38;4967909;28;20049;-68
2022/05/29 01:13:59;;;;;;;4.05;2.00;;;9.60;74.20;;;8.34;76.64;95659.53;5023592;28;20411;-68
2022/05/29 01:16:43;;;;;;;4.00;2.03;;;9.60;74.30;;;8.30;75.54;95655.63;5016714;28;20049;-68
2022/05/29 01:19:41;;;;;;;4.45;2.03;;;9.60;74.20;;;8.28;77.41;95649.75;5016437;28;20087;-67
2022/05/29 01:22:43;;;;;;;5.18;2.90;;;9.60;74.30;;;8.29;76.90;95640.91;5007990;28;20471;-67
2022/05/29 01:25:42;;;;;;;4.40;2.60;;;9.60;74.20;;;8.28;77.11;95626.19;5015293;28;20038;-67
2022/05/29 01:28:20;;;;;;;4.50;2.40;;;9.60;74.00;;;8.26;76.78;95628.19;5021915;28;20041;-67
2022/05/29 01:31:00;;;;;;;4.57;2.40;;;9.60;74.00;;;8.20;76.90;95619.25;4996742;28;20026;-68
2022/05/29 01:33:33;;;;;;;5.38;2.38;;;9.50;74.10;;;8.17;75.82;95610.97;4990885;28;20330;-67
2022/05/29 01:36:24;;;;;;;4.70;2.50;;;9.50;73.90;;;8.14;77.81;95613.94;5000098;28;20061;-67
2022/05/29 01:39:06;;;;;;;4.32;2.47;;;9.40;74.00;;;8.11;76.47;95609.88;5003431;28;20490;-67
2022/05/29 01:41:59;;;;;;;4.57;2.42;;;9.50;74.00;;;8.10;77.50;95607.44;5002568;28;20041;-67
2022/05/29 01:44:34;;;;;;;4.43;2.28;;;9.50;74.00;;;8.07;76.16;95605.19;5022761;28;20108;-67
2022/05/29 01:47:25;;;;;;;4.63;2.60;;;9.40;74.20;;;8.04;77.40;95597.72;5010380;28;20392;-70
2022/05/29 01:49:55;;;;;;;4.63;2.63;;;9.30;74.30;;;8.01;75.92;95598.91;4966520;28;20038;-68
2022/05/29 01:52:27;;;;;;;5.90;2.67;;;9.20;74.50;;;7.98;76.52;95594.84;5003308;28;20411;-68
2022/05/29 01:55:03;;;;;;;5.38;2.53;;;9.20;74.80;;;7.95;77.01;95587.34;4990984;28;20081;-68
2022/05/29 01:57:37;;;;;;;3.30;2.17;;;9.20;74.80;;;7.95;75.91;95583.94;4974603;28;20051;-67
2022/05/29 02:00:18;;;;;;;5.15;1.92;;;9.30;74.40;;;7.92;77.28;95584.28;5021705;28;20037;-67
2022/05/29 02:03:03;;;;;;;3.60;1.88;;;9.10;74.50;;;7.87;77.34;95586.63;5004241;28;20034;-68
2022/05/29 02:05:37;;;;;;;5.40;2.25;;;9.10;74.60;;;7.83;76.79;95578.34;5030369;28;20059;-67
2022/05/29 02:08:38;;;;;;;3.47;2.08;;;9.10;74.60;;;7.79;78.08;95566.63;4983198;28;20459;-68
2022/05/29 02:11:08;;;;;;;3.70;2.20;;;9.10;74.80;;;7.76;76.59;95564.38;5002460;28;20506;-68
2022/05/29 02:13:39;;;;;;;5.00;2.00;;;9.10;74.90;;;7.75;76.34;95556.72;4990373;28;20571;-68
2022/05/29 02:16:11;;;;;;;;;;;9.00;74.80;;;7.72;78.22;95550.03;4999115;28;20481;-68
2022/05/29 02:18:49;;;;;;;3.75;1.90;;;9.00;74.70;;;7.66;77.29;95538.47;5019194;28;19979;-68
2022/05/29 02:21:23;;;;;;;3.85;1.70;;;8.90;75.00;;;7.65;76.87;95533.44;5010653;28;20094;-67
2022/05/29 02:23:53;;;;;;;4.45;1.98;;;8.90;75.00;;;7.64;75.99;95534.44;5004879;28;20033;-67
2022/05/29 02:26:24;;;;;;;3.78;2.00;;;8.90;74.70;;;7.60;76.74;95533.19;5002794;28;20045;-68
2022/05/29 02:28:56;;;;;;;3.28;2.15;;;8.90;74.50;;;7.57;76.42;95523.09;4998731;28;20038;-68
2022/05/29 02:31:59;;;;;;;6.47;2.20;;;8.90;74.70;;;7.57;78.06;95526.50;4969299;28;20037;-67
2022/05/29 02:34:51;;;;;;;4.10;2.30;;;8.90;74.70;;;7.54;77.76;95520.84;5021409;28;20034;-68
2022/05/29 02:37:35;;;;;;;6.80;2.22;;;8.90;74.80;;;7.51;76.98;95519.41;5013424;28;20065;-67
2022/05/29 02:40:15;;;;;;;5.40;2.90;;;8.90;74.90;;;7.50;77.20;95511.75;5007043;28;20264;-67
2022/05/29 02:42:59;;;;;;;6.50;2.45;;;8.90;74.70;;;7.48;78.16;95511.13;5017421;28;20203;-67
2022/05/29 02:45:34;;;;;;;3.80;2.20;;;8.80;74.90;;;7.42;77.22;95507.41;5023853;28;20483;-67
2022/05/29 02:48:16;;;;;;;5.05;2.42;;;8.70;75.00;;;7.36;77.84;95506.34;5006372;28;20040;-68
2022/05/29 02:50:58;;;;;;;3.55;2.20;;;8.70;75.00;;;7.31;77.99;95502.66;5016347;28;20034;-68
2022/05/29 02:53:25;;;;;;;3.72;2.08;;;8.60;75.30;;;7.27;76.51;95506.63;4991611;28;20038;-68
2022/05/29 02:55:50;;;;;;;4.70;2.10;;;8.60;75.40;;;7.21;76.60;95505.53;4983792;28;20048;-68
2022/05/29 02:58:27;;;;;;;2.92;1.80;;;8.50;75.70;;;7.17;78.53;95501.69;5012930;28;20026;-68
2022/05/29 03:00:55;;;;;;;3.95;1.90;;;8.50;75.80;;;7.14;77.48;95502.03;5026268;28;20041;-68
2022/05/29 03:03:34;;;;;;;4.45;2.33;;;8.50;75.90;;;7.10;78.36;95498.19;5033277;28;20523;-67
2022/05/29 03:06:44;;;;;;;5.00;1.95;;;8.40;75.90;;;7.08;79.30;95502.78;4978362;28;20044;-68
2022/05/29 03:10:01;;;;;;;6.13;2.28;;;8.40;76.00;;;7.05;79.04;95500.53;5009449;28;20069;-67
2022/05/29 03:12:51;;;;;;;6.97;2.00;;;8.40;75.60;;;7.01;78.21;95499.25;5021570;28;20122;-67
2022/05/29 03:16:02;;;;;;;5.55;1.70;;;8.30;74.90;;;6.95;78.32;95497.38;5013840;28;20038;-67
2022/05/29 03:18:57;;;;;;;6.22;2.10;;;8.30;74.60;;;6.89;78.19;95500.72;5004212;28;20141;-68
2022/05/29 03:22:32;;;;;;;3.38;2.05;;;8.20;74.60;;;6.83;77.94;95499.63;5034681;28;20053;-67
2022/05/29 03:25:09;;;;;;;3.70;2.00;;;8.10;74.50;;;6.81;77.35;95506.03;5010876;28;20482;-68
2022/05/29 03:27:44;;;;;;;4.95;2.13;;;8.10;74.80;;;6.80;77.73;95514.88;5002104;28;20104;-67
2022/05/29 03:30:13;;;;;;;4.18;2.05;;;8.10;74.90;;;6.76;76.57;95519.63;5007238;28;20034;-67
2022/05/29 03:32:39;;;;;;;3.38;2.10;;;8.10;74.90;;;6.69;77.15;95514.31;5008004;28;20877;-67
2022/05/29 03:35:24;;;;;;;5.03;4.28;;;8.10;75.10;;;6.68;78.66;95512.69;4979982;28;20530;-68
2022/05/29 03:37:50;;;;;;;7.50;3.05;;;8.10;75.60;;;6.68;77.98;95512.69;5016699;28;20451;-67
2022/05/29 03:40:16;;;;;;;6.10;2.13;;;8.10;76.10;;;6.70;77.51;95502.84;4963007;28;20045;-68
2022/05/29 03:42:42;;;;;;;3.08;2.10;;;8.10;76.00;;;6.72;77.81;95508.72;5033367;28;20083;-67
2022/05/29 03:45:09;;;;;;;4.72;2.28;;;8.20;75.90;;;6.72;77.56;95513.94;5002320;28;20375;-67
2022/05/29 03:47:36;;;;;;;4.72;2.10;;;8.10;76.10;;;6.73;78.23;95515.56;4994692;28;20033;-67
2022/05/29 03:50:07;;;;;;;5.07;2.20;;;8.20;76.00;;;6.73;78.43;95509.53;5007751;28;20040;-67
2022/05/29 03:52:34;;;;;;;4.45;2.10;;;8.10;75.70;;;6.72;77.43;95503.50;5006394;28;20471;-67
2022/05/29 03:55:00;;;;;;;7.07;2.45;;;8.20;75.70;;;6.73;78.50;95494.66;5015812;28;20068;-68
2022/05/29 03:57:26;;;;;;;5.57;2.03;;;8.20;75.80;;;6.75;78.61;95492.66;4989665;28;20521;-67
2022/05/29 03:59:52;;;;;;;4.75;1.92;;;8.30;75.90;;;6.79;78.16;95487.06;5004567;28;20106;-66
2022/05/29 04:02:18;;;;;;;5.15;2.10;;;8.30;75.40;;;6.81;78.27;95485.13;5014016;28;20030;-66
2022/05/29 04:04:44;;;;;;;4.05;2.10;;;8.30;75.30;;;6.84;77.83;95484.75;4985896;28;20028;-66
2022/05/29 04:07:10;;;;;;;3.55;2.17;;;8.40;75.20;;;6.85;78.45;95481.97;4984018;28;20536;-66
2022/05/29 04:12:20;;;;;;;4.45;2.75;;;8.50;75.00;;;6.89;78.50;95471.94;5010751;28;20096;-67
2022/05/29 04:14:46;;;;;;;2.70;1.95;;;8.50;75.00;;;6.90;78.25;95468.34;4981060;28;20031;-67
2022/05/29 04:17:15;;;;;;;3.30;2.17;;;8.50;75.00;;;6.93;78.91;95465.38;5004232;28;20462;-67
2022/05/29 04:19:41;;;;;;;3.40;2.22;;;8.50;74.70;;;6.94;78.81;95453.91;5003452;28;20088;-67
2022/05/29 04:22:08;;;;;;;4.38;2.30;;;8.50;74.90;;;6.97;78.85;95458.78;4982796;28;20410;-66
2022/05/29 04:24:34;;;;;;;4.32;2.40;;;8.60;74.70;;;6.98;78.48;95460.41;5011926;28;20393;-67
2022/05/29 04:27:00;;;;;;;5.13;2.25;;;8.50;74.70;;;6.99;78.99;95454.16;4989998;28;20108;-66
2022/05/29 04:29:26;;;;;;;3.80;2.20;;;8.60;75.00;;;7.02;78.62;95456.44;5001327;28;20033;-67
2022/05/29 04:34:36;;;;;;;6.68;2.63;;;8.70;75.60;;;7.10;79.20;95458.94;4989403;28;20103;-66
2022/05/29 04:37:04;;;;;;;6.38;2.65;;;8.70;75.90;;;7.17;79.59;95454.59;5002696;28;20490;-67
2022/05/29 04:39:32;;;;;;;5.60;3.22;;;8.80;76.40;;;7.23;79.57;95447.81;5000455;28;20064;-66
2022/05/29 04:41:59;;;;;;;4.45;2.92;;;8.90;76.80;;;7.29;80.78;95457.56;4988493;28;20049;-66
2022/05/29 04:44:25;;;;;;;4.38;2.78;;;9.00;76.80;;;7.35;80.72;95454.22;5002247;28;20077;-66
2022/05/29 04:46:50;;;;;;;5.15;2.92;;;9.10;76.70;;;7.42;81.20;95460.31;5011960;28;20129;-66
2022/05/29 04:49:16;;;;;;;6.07;2.83;;;9.20;76.90;;;7.50;80.71;95454.97;4966409;28;20099;-67
2022/05/29 04:51:42;;;;;;;5.15;2.75;;;9.20;76.40;;;7.57;80.78;95466.31;5004989;28;20042;-66
2022/05/29 04:54:08;;;;;;;5.72;3.03;;;9.30;76.40;;;7.63;81.10;95464.75;4981121;28;20050;-66
2022/05/29 04:56:33;;;;;;;4.35;2.60;;;9.40;76.40;;;7.70;81.47;95457.81;5021283;28;20067;-66
2022/05/29 04:58:59;;;;;;;6.30;2.60;;;9.50;76.40;;;7.78;81.14;95456.84;5006437;28;20224;-67
2022/05/29 05:01:25;;;;;;;5.53;3.03;;;9.60;75.90;;;7.86;80.75;95457.53;5012085;28;20068;-67
2022/05/29 05:03:50;;;;;;;6.28;2.50;;;9.60;75.40;;;7.93;80.73;95455.81;4982675;28;20030;-66
2022/05/29 05:06:16;;;;;;;4.70;2.47;;;9.70;75.30;;;8.03;80.51;95465.13;4991048;28;20064;-66
2022/05/29 05:08:43;;;;;;;5.85;2.50;;;9.80;74.90;;;8.08;80.12;95460.13;5028940;28;20038;-66
2022/05/29 05:11:09;;;;;;;6.78;2.38;;;9.80;73.80;;;8.16;79.64;95454.78;4987005;28;20081;-67
2022/05/29 05:13:35;;;;;;;3.35;2.35;;;9.90;73.40;;;8.23;79.76;95461.69;4981610;28;20070;-66
2022/05/29 05:16:05;;;;;;;7.50;2.67;;;10.00;73.20;;;8.32;79.94;95466.78;4989591;28;20463;-66
2022/05/29 05:18:31;;;;;;;6.13;3.00;;;10.10;72.90;;;8.38;79.42;95459.00;4998226;28;20034;-66
2022/05/29 05:20:57;;;;;;;5.60;2.47;;;10.20;73.10;;;8.47;78.82;95463.09;4995208;28;20289;-67
2022/05/29 05:23:23;;;;;;;4.82;2.60;;;10.30;73.10;;;8.56;79.19;95467.19;4990281;28;20553;-66
2022/05/29 05:25:49;;;;;;;6.00;2.53;;;10.40;72.20;;;8.67;78.40;95472.91;5000507;28;20087;-66
2022/05/29 05:28:14;;;;;;;7.18;2.47;;;10.60;73.00;;;8.79;79.71;95460.88;4984444;28;20035;-66
2022/05/29 05:30:40;;;;;;;4.72;2.40;;;10.70;72.90;;;8.92;78.99;95460.94;5011150;28;20084;-66
2022/05/29 05:33:06;;;;;;;3.35;2.53;;;10.90;73.00;;;9.04;79.12;95462.00;4987545;28;20081;-67
2022/05/29 05:35:32;;;;;;;3.90;2.20;;;11.00;70.80;;;9.17;78.11;95464.69;5016687;28;20055;-65
2022/05/29 05:37:58;;;;;;;5.03;2.40;;;11.20;71.00;;;9.31;79.18;95464.75;4970891;28;20610;-65
2022/05/29 05:40:24;;;;;;;5.75;2.30;;;11.40;71.10;;;9.43;78.73;95457.94;4986147;28;20479;-66
2022/05/29 05:42:50;;;;;;;3.90;2.20;;;11.50;69.80;;;9.56;78.00;95463.22;4992040;28;20034;-66
2022/05/29 05:45:15;;;;;;;6.55;3.33;;;11.60;68.20;;;9.72;76.38;95465.47;4990707;28;20030;-66
2022/05/29 05:47:41;;;;;;;8.07;5.32;;;11.80;67.20;;;9.90;75.80;95469.34;4975941;28;20557;-64
2022/05/29 05:50:09;;;;;;;6.93;3.55;;;12.00;66.80;;;10.08;74.76;95466.94;5021813;28;20530;-66
2022/05/29 05:52:36;;;;;;;4.47;2.10;;;12.20;66.10;;;10.29;73.92;95469.41;4967380;28;20582;-68
2022/05/29 05:55:06;;;;;;;6.07;3.08;;;12.50;66.20;;;10.49;74.51;95464.16;5004034;28;20396;-70
2022/05/29 05:57:31;;;;;;;6.65;3.15;;;12.70;65.00;;;10.68;72.99;95457.25;4986036;28;20109;-67
2022/05/29 05:59:57;;;;;;;8.23;5.90;;;12.80;61.60;;;10.89;71.20;95456.22;4987270;28;20076;-67
2022/05/29 06:02:24;;;;;;;5.13;3.30;;;13.10;62.00;;;11.09;71.91;95458.75;4990840;28;20057;-67
2022/05/29 06:04:50;;;;;;;3.13;2.17;;;13.20;62.00;;;11.32;70.52;95456.47;4995835;28;20068;-68
2022/05/29 06:07:16;;;;;;;3.08;2.05;;;13.60;61.60;;;11.57;71.40;95462.63;5002892;28;20065;-67
2022/05/29 06:09:42;;;;;;;7.13;4.85;;;13.80;60.90;;;11.82;68.99;95461.91;4984485;28;20172;-69
2022/05/29 06:12:08;;;;;;;6.25;3.38;;;14.10;58.80;;;12.04;69.11;95457.91;5025922;28;20046;-68
2022/05/29 06:14:35;;;;;;;5.90;2.63;;;14.20;58.80;;;12.29;67.51;95457.13;5007858;28;20025;-68
2022/05/29 06:17:03;;;;;;;5.28;1.88;;;14.50;57.50;;;12.50;66.46;95454.13;5002456;28;20121;-68
2022/05/29 06:19:29;;;;;;;4.97;1.98;;;14.60;57.30;;;12.65;65.97;95459.84;5001244;28;20033;-66
2022/05/29 06:21:55;;;;;;;5.82;2.08;;;14.60;56.00;;;12.72;65.30;95455.34;4988609;28;20030;-69
2022/05/29 06:24:21;;;;;;;3.45;1.80;;;14.70;55.30;;;12.82;64.17;95444.25;4961223;28;20042;-70
2022/05/29 06:26:47;;;;;;;3.75;2.30;;;14.80;55.30;;;12.87;64.46;95453.13;4995309;28;20049;-66
2022/05/29 06:29:13;;;;;;;4.47;2.28;;;14.90;55.90;;;12.93;64.69;95455.94;5019041;28;20034;-69
2022/05/29 06:31:39;;;;;;;4.88;2.10;;;15.00;56.40;;;13.02;64.75;95454.63;5006213;28;20033;-68
2022/05/29 06:34:05;;;;;;;5.22;2.63;;;15.20;55.60;;;13.12;64.17;95460.19;4996575;28;20037;-67
2022/05/29 06:36:31;;;;;;;18.23;13.60;;;15.30;56.00;;;13.22;64.13;95455.25;4991608;28;20049;-66
2022/05/29 06:38:58;;;;;;;7.32;4.45;;;15.40;56.80;;;13.33;64.89;95457.13;5010780;28;20470;-69
2022/05/29 06:41:24;;;;;;;8.50;2.55;;;15.50;56.30;;;13.44;64.48;95463.50;5015466;28;20331;-66
2022/05/29 06:43:51;;;;;;;5.80;2.22;;;15.60;56.50;;;13.52;63.93;95454.47;4983700;28;20112;-66
2022/05/29 06:46:17;;;;;;;4.57;2.10;;;15.60;55.70;;;13.60;64.65;95456.81;4992273;28;20443;-66
2022/05/29 06:48:43;;;;;;;3.22;2.10;;;15.70;56.20;;;13.68;63.93;95456.50;4999349;28;20505;-65
2022/05/29 06:51:14;;;;;;;4.05;2.33;;;15.80;55.90;;;13.74;63.35;95453.75;5010518;28;20288;-64
2022/05/29 06:53:41;;;;;;;4.35;1.95;;;15.80;56.00;;;13.81;62.53;95461.63;4996668;28;20033;-65
2022/05/29 06:56:07;;;;;;;2.95;1.88;;;15.90;55.00;;;13.85;63.06;95448.75;4995552;28;20046;-68
2022/05/29 06:58:32;;;;;;;5.22;2.10;;;15.90;54.90;;;13.90;62.95;95446.22;4978718;28;20410;-68
2022/05/29 07:07:00;;;;;;;5.30;2.00;;;16.40;53.80;;;14.18;62.13;95440.31;5011345;28;20048;-69
2022/05/29 07:09:36;;;;;;;3.05;1.80;;;16.50;52.60;;;14.39;59.75;95445.06;4981500;28;20255;-65
2022/05/29 07:12:16;;;;;;;3.78;1.70;;;17.10;51.60;;;14.71;58.87;95442.94;4995625;28;20042;-65
2022/05/29 07:15:06;;;;;;;7.78;4.57;;;17.70;49.20;;;15.09;58.44;95445.09;5008348;28;20034;-65
2022/05/29 07:17:32;;;;;;;3.78;2.00;;;18.10;48.60;;;15.49;60.76;95441.66;4986971;28;20125;-65
2022/05/29 07:19:58;;;;;;;3.80;1.60;;;18.70;48.50;;;15.85;58.89;95427.28;4975251;28;20038;-66
2022/05/29 07:22:25;;;;;;;5.00;1.73;;;19.00;45.60;;;16.21;58.15;95431.31;4994812;28;20518;-66
2022/05/29 07:24:51;;;;;;;3.90;1.85;;;19.30;45.60;;;16.56;57.78;95433.75;5004533;28;20246;-66
2022/05/29 07:27:18;;;;;;;4.55;1.65;;;19.80;46.50;;;16.90;56.37;95441.69;4985377;28;20480;-64
2022/05/29 07:29:43;;;;;;;3.88;1.52;;;20.10;43.00;;;17.13;54.64;95421.03;5001880;28;20061;-63
2022/05/29 07:32:10;;;;;;;3.85;1.80;;;20.00;42.20;;;17.22;53.46;95421.44;4990631;28;20519;-65
2022/05/29 07:34:36;;;;;;;3.75;1.50;;;19.70;42.60;;;17.26;52.67;95411.91;4989981;28;20042;-65
2022/05/29 07:37:07;;;;;;;3.85;1.77;;;19.60;43.50;;;17.36;51.86;95421.84;5003649;28;20572;-65
2022/05/29 07:39:40;;;;;;;3.22;1.70;;;20.10;43.90;;;17.54;52.33;95424.19;4982790;28;20557;-65
2022/05/29 07:44:52;;;;;;;3.53;1.10;;;20.10;43.20;;;17.70;51.94;95412.69;5018259;28;20124;-63
2022/05/29 07:47:19;;;;;;;4.45;1.40;;;20.00;44.80;;;17.75;52.07;95414.59;4983545;28;20048;-64
2022/05/29 07:49:45;;;;;;;2.78;1.27;;;20.10;44.00;;;17.78;51.67;95414.09;5004260;28;20034;-64
2022/05/29 07:52:10;;;;;;;3.50;1.20;;;20.10;43.70;;;17.74;50.92;95427.09;4978875;28;20229;-64
2022/05/29 07:54:36;;;;;;;5.50;2.17;;;19.90;43.40;;;17.69;50.54;95421.72;5020004;28;20064;-63
2022/05/29 07:57:03;;;;;;;3.55;1.45;;;19.70;43.90;;;17.60;50.34;95412.53;5010534;28;20132;-64
2022/05/29 07:59:29;;;;;;;4.93;1.45;;;19.60;42.60;;;17.51;50.73;95411.41;5008868;28;20044;-64
2022/05/29 08:01:55;;;;;;;4.28;1.50;;;19.60;43.90;;;17.47;50.08;95412.94;5003115;28;20080;-63
2022/05/29 08:04:21;;;;;;;5.05;1.65;;;19.60;44.30;;;17.45;50.85;95417.72;4973635;28;20040;-65
2022/05/29 08:06:47;;;;;;;3.85;1.65;;;19.70;44.20;;;17.46;51.09;95421.97;4987247;28;20042;-64
2022/05/29 08:09:13;;;;;;;3.58;1.35;;;19.80;45.10;;;17.40;50.92;95423.75;5014143;28;20038;-65
2022/05/29 08:11:39;;;;;;;4.70;1.60;;;19.70;44.80;;;17.38;50.98;95422.38;4984398;28;20113;-64
2022/05/29 08:14:04;;;;;;;5.63;1.95;;;19.70;44.00;;;17.41;50.02;95429.88;5014986;28;20038;-64
2022/05/29 08:16:30;;;;;;;3.85;1.70;;;19.90;43.20;;;17.48;50.68;95427.84;4996494;28;20241;-65
2022/05/29 08:18:56;;;;;;;2.08;1.23;;;20.00;43.20;;;17.56;51.37;95424.75;5013711;28;20075;-65
2022/05/29 08:21:22;;;;;;;4.80;1.25;;;20.10;44.80;;;17.61;50.33;95426.66;5005559;28;20445;-65
2022/05/29 08:32:02;;;;;;;2.60;1.25;;;20.40;43.80;;;18.00;50.46;95422.03;5013229;28;20052;-64
2022/05/29 08:34:28;;;;;;;3.95;1.65;;;20.70;42.40;;;18.14;50.63;95417.91;4997198;28;20030;-65
2022/05/29 08:36:55;;;;;;;4.57;1.48;;;20.80;43.10;;;18.39;49.04;95419.19;4990810;28;20049;-65
2022/05/29 08:39:22;;;;;;;9.30;4.65;;;21.50;40.20;;;18.77;48.67;95416.28;4988177;28;20160;-66
2022/05/29 08:41:51;;;;;;;6.03;2.90;;;22.10;40.50;;;19.00;48.85;95414.28;5008977;28;20038;-66
2022/05/29 08:44:24;;;;;;;4.68;2.30;;;22.00;39.90;;;19.16;46.14;95418.63;5006796;28;20038;-66
2022/05/29 08:47:00;;;;;;;3.92;1.80;;;21.90;39.40;;;19.32;47.24;95423.00;4988351;28;20030;-67
2022/05/29 08:49:32;;;;;;;3.30;1.15;;;22.10;40.70;;;19.51;45.33;95416.13;4998032;28;20030;-67
2022/05/29 08:52:29;;;;;;;3.90;1.30;;;22.70;38.50;;;19.87;43.90;95413.59;4992436;28;20042;-66
2022/05/29 08:55:10;;;;;;;3.03;1.30;;;23.10;36.70;;;20.13;43.18;95415.22;5009826;28;20033;-66
2022/05/29 08:57:58;;;;;;;2.35;1.25;;;23.40;35.90;;;20.42;44.11;95415.56;4987740;28;20046;-66
2022/05/29 09:00:51;;;;;;;5.03;1.20;;;23.80;36.60;;;20.76;42.29;95418.47;5009262;28;20034;-67
2022/05/29 09:03:38;;;;;;;3.20;1.10;;;24.10;36.00;;;21.08;41.91;95423.50;5008005;28;20034;-66
2022/05/29 09:06:15;;;;;;;3.25;1.10;;;24.60;34.70;;;21.40;42.57;95415.13;5017861;28;20121;-67
2022/05/29 09:08:59;;;;;;;2.65;1.00;;;25.10;34.60;;;21.81;39.94;95414.13;5001612;28;20113;-66
2022/05/29 09:11:36;;;;;;;4.38;1.30;;;25.50;32.20;;;22.02;39.96;95411.06;5005598;28;20040;-67
2022/05/29 09:14:18;;;;;;;4.43;1.40;;;25.60;31.70;;;22.20;39.00;95409.66;5002761;28;20076;-66
2022/05/29 09:16:46;;;;;;;3.08;1.20;;;25.30;32.70;;;22.14;39.75;95408.06;5001294;28;20395;-66
2022/05/29 09:19:58;;;;;;;3.90;1.40;;;24.80;30.30;;;22.04;37.33;95404.63;4995665;28;20029;-66
2022/05/29 09:22:41;;;;;;;3.05;1.25;;;24.70;31.50;;;22.04;38.98;95396.59;5000917;28;20109;-67
2022/05/29 09:25:23;;;;;;;4.13;1.10;;;25.30;32.30;;;22.22;38.49;95387.94;5000792;28;20457;-66
2022/05/29 09:27:49;;;;;;;6.78;3.28;;;25.60;31.20;;;22.49;40.01;95396.28;5019025;28;20041;-66
2022/05/29 09:30:16;;;;;;;5.22;3.25;;;26.30;31.20;;;22.83;39.58;95387.41;4992191;28;20045;-67
2022/05/29 09:32:52;;;;;;;5.20;3.15;;;26.60;30.80;;;22.94;37.49;95393.50;4984677;28;20511;-67
2022/05/29 09:35:58;;;;;;;3.80;1.40;;;25.80;31.70;;;22.57;37.15;95384.94;4975492;28;20492;-67
2022/05/29 09:39:22;;;;;;;3.47;1.48;;;24.80;32.30;;;22.29;37.45;95388.41;5026437;28;20034;-67
2022/05/29 09:42:02;;;;;;;2.97;1.08;;;24.50;32.60;;;21.97;37.02;95392.34;4991431;28;20041;-67
2022/05/29 09:44:28;;;;;;;2.90;1.20;;;24.10;32.20;;;21.65;37.75;95398.16;4999934;28;20336;-67
2022/05/29 09:46:55;;;;;;;2.55;1.23;;;23.40;32.10;;;21.27;38.08;95388.16;5014090;28;20125;-67
2022/05/29 09:49:49;;;;;;;3.25;1.30;;;22.80;33.70;;;20.87;38.09;95402.44;5000208;28;20036;-67
2022/05/29 09:52:24;;;;;;;2.88;1.00;;;22.30;34.50;;;20.42;38.41;95404.06;5015855;28;20022;-69
2022/05/29 09:55:20;;;;;;;4.05;1.30;;;21.70;35.50;;;19.98;38.05;95401.06;5005537;28;20110;-67
2022/05/29 09:57:56;;;;;;;6.47;1.10;;;21.30;35.70;;;19.56;38.10;95397.50;5018736;28;20025;-68
2022/05/29 10:00:30;;;;;;;4.00;1.10;;;20.80;35.70;;;19.17;38.80;95397.06;4980169;28;20076;-69
2022/05/29 10:02:56;;;;;;;3.63;1.10;;;20.30;36.00;;;18.75;38.79;95396.28;5014015;28;20033;-66
2022/05/29 10:05:41;;;;;;;3.53;1.15;;;19.80;36.90;;;18.41;38.55;95393.09;4969606;28;20034;-69
2022/05/29 10:08:40;;;;;;;3.33;1.25;;;19.60;36.90;;;18.06;39.84;95400.53;4988669;28;20100;-69
2022/05/29 10:11:35;;;;;;;4.80;1.20;;;19.20;38.50;;;17.74;40.77;95392.53;4994007;28;20226;-69
2022/05/29 10:14:39;;;;;;;5.15;1.33;;;18.90;38.50;;;17.38;40.93;95391.28;5018357;28;20176;-69
2022/05/29 10:17:13;;;;;;;3.15;1.20;;;18.70;39.40;;;17.11;41.34;95399.22;5030518;28;20045;-69
2022/05/29 10:19:44;;;;;;;4.15;1.15;;;18.30;40.20;;;16.90;41.45;95401.84;5023305;28;20041;-69
2022/05/29 10:22:37;;;;;;;4.45;1.20;;;18.20;40.20;;;16.70;41.82;95402.38;4990923;28;20069;-69
2022/05/29 10:25:18;;;;;;;2.35;1.10;;;17.90;41.10;;;16.53;43.19;95413.81;4996048;28;20530;-69
2022/05/29 10:27:46;;;;;;;3.15;1.23;;;17.80;42.10;;;16.39;43.78;95412.50;5003119;28;20594;-68
2022/05/29 10:30:25;;;;;;;3.88;1.90;;;17.70;43.20;;;16.23;45.00;95408.81;5002823;28;20029;-67
2022/05/29 10:32:50;;;;;;;6.35;2.13;;;17.40;45.90;;;16.02;47.01;95417.47;5005352;28;20077;-67
2022/05/29 10:35:32;;;;;;;5.90;2.33;;;17.10;48.70;;;15.85;50.00;95420.13;4980543;28;20372;-67
2022/05/29 10:38:00;;;;;;;4.80;1.85;;;17.10;50.40;;;15.67;49.42;95420.31;5011567;28;20061;-67
2022/05/29 10:40:31;;;;;;;4.30;1.63;;;16.80;50.80;;;15.40;49.39;95425.34;4993026;28;20035;-66
2022/05/29 10:43:03;;;;;;;4.22;1.55;;;16.30;49.40;;;15.16;50.87;95421.94;5001362;28;20042;-67
2022/05/29 10:45:42;;;;;;;4.38;1.40;;;16.20;51.10;;;14.96;50.87;95427.63;5004910;28;20061;-67
2022/05/29 10:48:39;;;;;;;3.38;1.40;;;16.10;50.60;;;14.74;52.20;95441.69;5006847;28;20032;-67
2022/05/29 10:51:39;;;;;;;4.32;1.40;;;15.80;52.10;;;14.45;53.85;95454.75;5027008;28;20042;-66
2022/05/29 10:54:18;;;;;;;4.18;1.75;;;15.40;52.40;;;14.16;52.34;95453.78;4996401;28;20046;-67
2022/05/29 10:57:18;;;;;;;7.10;1.70;;;15.10;52.80;;;13.86;54.22;95460.94;5017340;28;20531;-67
2022/05/29 11:00:08;;;;;;;5.10;1.73;;;14.70;53.40;;;13.61;55.56;95459.25;5022916;28;20565;-67
2022/05/29 11:03:18;;;;;;;6.60;2.15;;;14.60;55.50;;;13.30;56.74;95472.59;5007728;28;20050;-67
2022/05/29 11:06:40;;;;;;;5.43;1.90;;;14.20;57.40;;;12.95;58.47;95464.44;5012203;28;20025;-68
2022/05/29 11:09:52;;;;;;;3.80;1.10;;;13.90;59.20;;;12.66;58.31;95474.66;5020938;28;20073;-67
2022/05/29 11:13:09;;;;;;;2.03;0.80;;;13.60;58.00;;;12.44;58.00;95490.06;5011806;28;20123;-67
2022/05/29 11:16:37;;;;;;;3.30;1.10;;;13.50;57.80;;;12.22;57.66;95502.81;5018207;28;20045;-66
2022/05/29 11:19:41;;;;;;;5.03;1.38;;;13.20;57.30;;;11.95;57.69;95485.53;5024316;28;20481;-66